Weichang, China
Current Conditions -  °F | °C
As of 2:00 AM on Friday 28 Nov 2014 (Local Time) from ZBAA Reporting Station
Clear Clear  
Wind Chill: 34°   Ceiling: Unl
Heat Index: 37°   Visibility: 4mi
Dew Point: 16°   Wind: 4mph
Humidity: 41%   Direction: 340°NNW
Pressure: 30.18"   Gusts: NA
Location:  41.93°N, 117.75°E
Report Text: ZBAA 271800Z 34002MPS 7000 NSC 03/M09 Q1022 NOSIG
Loading
Personal Weather Stations






























Interactive Weather Map New forecast layout! Learn more

10-Day Weather Forecast

Advertisements
Track Severe Weather on mobile